Terminal Aerodrome Forecast
Issued by NWS

Home | Current Version | Previous Version | Text Only | Print | Product List | Glossary On
Versions: 1 2 3 4 5 6 7 8 9 10 11 12 13 14 15 16 17 18 19 20
000
FTUS44 KLZK 170500
TAFBPK
TAF
KBPK 170530Z 1706/1806 13005KT P6SM OVC015
      TEMPO 1708/1712 2SM BR OVC005
     FM171200 14003KT 2SM BR VCTS OVC005CB
     FM171500 15005KT 5SM BR VCTS BKN012CB
      TEMPO 1715/1718 4SM -TSRA BR BKN025CB
     FM171800 18007KT P6SM OVC050
     FM180000 17005KT P6SM VCTS SCT035 OVC050CB=

USA.gov is the U.S. government's official web portal to all federal, state and local government web resources and services.